createdAt,value
2023-01-20T00:01:18.084Z,99364.36
2023-01-20T00:04:20.095Z,99385.11
2023-01-20T00:07:21.439Z,99369.73
2023-01-20T00:10:23.073Z,99367.65
2023-01-20T00:13:24.069Z,99372.77
2023-01-20T00:16:25.125Z,99370.89
2023-01-20T00:19:27.156Z,99370.02
2023-01-20T00:22:28.198Z,99364.85
2023-01-20T00:25:22.215Z,99371.52
2023-01-20T00:28:23.165Z,99366.73
2023-01-20T00:31:34.201Z,99376.56
2023-01-20T00:34:35.107Z,99382.23
2023-01-20T00:37:39.153Z,99380.68
2023-01-20T00:40:41.129Z,99383.25
2023-01-20T00:43:42.219Z,99381.02
2023-01-20T00:46:43.693Z,99374.85
2023-01-20T00:49:44.155Z,99380.09
2023-01-20T00:52:46.148Z,99382.31
2023-01-20T00:55:48.145Z,99384.33
2023-01-20T00:58:49.182Z,99383.08
2023-01-20T01:01:50.228Z,99383.89
2023-01-20T01:34:25.235Z,99370.86
2023-01-20T01:37:26.048Z,99369.83
2023-01-20T01:40:27.038Z,99372.30
2023-01-20T01:43:43.261Z,99376.05
2023-01-20T01:46:43.217Z,99371.09
2023-01-20T01:49:44.123Z,99376.23
2023-01-20T01:52:47.063Z,99371.45
2023-01-20T01:55:49.317Z,99378.17
2023-01-20T01:58:50.076Z,99377.59
2023-01-20T02:01:50.526Z,99375.29
2023-01-20T02:04:52.089Z,99376.89
2023-01-20T02:07:52.094Z,99372.69
2023-01-20T02:10:52.094Z,99378.06
2023-01-20T02:13:52.089Z,99383.96
2023-01-20T02:17:15.172Z,99383.02
2023-01-20T02:20:39.485Z,99383.38
2023-01-20T02:24:13.103Z,99382.73
2023-01-20T02:27:21.115Z,99392.14
2023-01-20T02:30:40.133Z,99392.26
2023-01-20T02:33:43.153Z,99393.76
2023-01-20T02:36:51.164Z,99399.70
2023-01-20T02:40:31.156Z,99397.24
2023-01-20T02:43:34.171Z,99400.52
2023-01-20T02:46:39.332Z,99410.71
2023-01-20T02:49:50.202Z,99413.88
2023-01-20T02:52:54.177Z,99425.63
2023-01-20T02:55:57.116Z,99428.63
2023-01-20T02:59:09.275Z,99419.73
2023-01-20T03:02:32.171Z,99413.38
2023-01-20T03:05:41.175Z,99423.77
2023-01-20T03:08:42.165Z,99426.52
2023-01-20T03:11:42.201Z,99427.55
2023-01-20T03:14:42.179Z,99425.31
2023-01-20T03:17:45.687Z,99425.45
2023-01-20T03:20:46.242Z,99429.34
2023-01-20T03:23:47.216Z,99438.90
2023-01-20T03:26:47.208Z,99443.86
2023-01-20T03:29:49.378Z,99451.20
2023-01-20T03:32:52.195Z,99457.05
2023-01-20T03:35:52.218Z,99464.27
2023-01-20T03:38:52.226Z,99464.66
2023-01-20T03:42:14.215Z,99466.09
2023-01-20T03:45:19.230Z,99465.48
2023-01-20T03:48:27.489Z,99473.34
2023-01-20T03:51:53.225Z,99474.69
2023-01-20T03:54:57.265Z,99466.22
2023-01-20T03:58:10.716Z,99465.49
2023-01-20T04:01:18.086Z,99459.50
2023-01-20T04:04:22.299Z,99463.90
2023-01-20T04:07:25.329Z,99463.20
2023-01-20T04:10:26.277Z,99468.42
2023-01-20T04:13:26.362Z,99476.05
2023-01-20T04:16:29.510Z,99476.19
2023-01-20T04:19:29.330Z,99480.44
2023-01-20T04:22:46.377Z,99484.30
2023-01-20T04:25:46.277Z,99494.33
2023-01-20T04:28:47.387Z,99500.96
2023-01-20T04:31:50.618Z,99517.20
2023-01-20T04:34:50.406Z,99520.60
2023-01-20T04:37:52.329Z,99521.38
2023-01-20T04:40:52.343Z,99522.44
2023-01-20T04:43:52.326Z,99534.08
2023-01-20T04:46:46.758Z,99527.95
2023-01-20T04:49:47.351Z,99526.15
2023-01-20T04:52:47.383Z,99531.32
2023-01-20T04:55:47.371Z,99539.10
2023-01-20T04:58:48.314Z,99535.98
2023-01-20T05:01:48.497Z,99539.15
2023-01-20T05:04:49.374Z,99547.44
2023-01-20T05:07:50.355Z,99545.02
2023-01-20T05:10:50.373Z,99566.73
2023-01-20T05:13:50.392Z,99559.59
2023-01-20T05:16:53.364Z,99572.52
2023-01-20T05:19:53.452Z,99564.91
2023-01-20T05:22:53.404Z,99565.30
2023-01-20T05:25:53.399Z,99577.04
2023-01-20T05:28:46.486Z,99584.83
2023-01-20T05:31:44.494Z,99584.04
2023-01-20T05:34:44.410Z,99589.52
2023-01-20T05:37:48.823Z,99580.67
2023-01-20T05:40:53.782Z,99581.95
2023-01-20T05:43:56.553Z,99588.75
2023-01-20T05:46:56.471Z,99595.38
2023-01-20T05:49:57.476Z,99599.83
2023-01-20T05:53:00.446Z,99598.35
2023-01-20T05:56:01.195Z,99602.24
2023-01-20T05:59:02.476Z,99608.02
2023-01-20T06:02:02.521Z,99614.33
2023-01-20T06:05:07.670Z,99612.41
2023-01-20T06:08:09.642Z,99614.98
2023-01-20T06:11:11.523Z,99608.69
2023-01-20T06:14:14.594Z,99605.39
2023-01-20T06:17:14.485Z,99609.67
2023-01-20T06:20:18.905Z,99613.95
2023-01-20T06:23:31.520Z,99616.41
2023-01-20T06:26:31.530Z,99631.73
2023-01-20T06:29:31.535Z,99639.66
2023-01-20T06:32:31.708Z,99636.98
2023-01-20T06:35:33.551Z,99634.35
2023-01-20T06:38:35.585Z,99632.04
2023-01-20T06:41:38.544Z,99636.98
2023-01-20T06:44:41.566Z,99649.27
2023-01-20T06:47:44.549Z,99650.02
2023-01-20T06:50:44.609Z,99645.80
2023-01-20T06:53:47.554Z,99649.05
2023-01-20T06:56:50.905Z,99643.23
2023-01-20T06:59:54.901Z,99644.44
2023-01-20T07:02:58.556Z,99667.07
2023-01-20T07:06:14.607Z,99666.91
2023-01-20T07:09:25.956Z,99676.98
2023-01-20T07:12:31.636Z,99689.65
2023-01-20T07:15:33.634Z,99677.85
2023-01-20T07:18:33.617Z,99676.68
2023-01-20T07:21:36.574Z,99680.69
2023-01-20T07:24:36.759Z,99683.61
2023-01-20T07:27:37.928Z,99683.54
2023-01-20T07:30:47.291Z,99678.04
2023-01-20T07:33:57.527Z,99673.45
2023-01-20T07:36:59.684Z,99677.01
2023-01-20T07:40:02.670Z,99681.41
2023-01-20T07:43:05.651Z,99677.83
2023-01-20T07:46:17.638Z,99675.16
2023-01-20T07:49:18.653Z,99682.16
2023-01-20T07:52:19.639Z,99687.65
2023-01-20T07:55:23.027Z,99685.59
2023-01-20T07:58:24.672Z,99702.52
2023-01-20T08:01:33.872Z,99704.05
2023-01-20T08:04:36.738Z,99710.46
2023-01-20T08:07:36.665Z,99718.30
2023-01-20T08:10:37.691Z,99729.05
2023-01-20T08:13:41.715Z,99738.02
2023-01-20T08:16:42.754Z,99715.78
2023-01-20T08:19:42.680Z,99714.05
2023-01-20T08:22:42.757Z,99713.70
2023-01-20T08:25:42.715Z,99720.91
2023-01-20T08:28:43.752Z,99715.27
2023-01-20T08:31:43.832Z,99714.75
2023-01-20T08:34:43.710Z,99712.64
2023-01-20T08:37:43.710Z,99714.89
2023-01-20T08:40:44.753Z,99707.80
2023-01-20T08:43:48.823Z,99705.89
2023-01-20T08:46:49.733Z,99712.54
2023-01-20T08:49:49.776Z,99714.31
2023-01-20T08:52:50.802Z,99714.88
2023-01-20T08:55:52.752Z,99721.28
2023-01-20T08:58:52.751Z,99709.96
2023-01-20T09:01:53.780Z,99712.36
2023-01-20T09:04:55.769Z,99712.41
2023-01-20T09:07:59.795Z,99700.92
2023-01-20T09:11:00.772Z,99712.89
2023-01-20T09:14:01.807Z,99711.00
2023-01-20T09:17:02.902Z,99706.61
2023-01-20T09:20:02.816Z,99700.66
2023-01-20T09:23:02.801Z,99700.96
2023-01-20T09:26:02.786Z,99708.03
2023-01-20T09:29:02.836Z,99706.59
2023-01-20T09:32:05.944Z,99711.05
2023-01-20T09:35:08.807Z,99712.83
2023-01-20T09:38:27.872Z,99719.96
2023-01-20T09:41:50.807Z,99719.90
2023-01-20T09:45:03.829Z,99720.65
2023-01-20T09:48:03.930Z,99714.59
2023-01-20T09:51:23.889Z,99724.02
2023-01-20T09:54:29.869Z,99732.52
2023-01-20T09:57:29.892Z,99727.21
2023-01-20T10:00:31.867Z,99733.77
2023-01-20T10:03:35.852Z,99723.20
2023-01-20T10:06:38.865Z,99735.92
2023-01-20T10:09:44.874Z,99735.33
2023-01-20T10:13:15.084Z,99734.58
2023-01-20T10:16:17.956Z,99734.03
2023-01-20T10:19:33.949Z,99742.51
2023-01-20T10:22:42.902Z,99733.56
2023-01-20T10:25:46.945Z,99728.67
2023-01-20T10:28:50.927Z,99721.44
2023-01-20T10:31:56.019Z,99716.20
2023-01-20T10:34:59.882Z,99717.70
2023-01-20T10:38:01.898Z,99724.47
2023-01-20T10:41:09.149Z,99725.52
2023-01-20T10:44:08.955Z,99724.57
2023-01-20T10:47:30.930Z,99716.48
2023-01-20T10:50:52.997Z,99718.55
2023-01-20T10:54:29.013Z,99716.57
2023-01-20T10:57:28.917Z,99722.84
2023-01-20T11:00:37.971Z,99716.37
2023-01-20T11:03:37.982Z,99719.45
2023-01-20T11:06:40.995Z,99709.89
2023-01-20T11:09:51.005Z,99718.17
2023-01-20T11:12:54.009Z,99715.79
2023-01-20T11:16:03.059Z,99719.02
2023-01-20T11:19:16.018Z,99717.50
2023-01-20T11:22:30.004Z,99724.29
2023-01-20T11:25:38.995Z,99736.00
2023-01-20T11:28:39.025Z,99734.08
2023-01-20T11:31:54.168Z,99733.52
2023-01-20T11:34:54.035Z,99733.42
2023-01-20T11:37:54.088Z,99730.84
2023-01-20T11:40:55.101Z,99730.29
2023-01-20T11:43:55.323Z,99741.96
2023-01-20T11:46:55.210Z,99739.96
2023-01-20T11:49:57.778Z,99735.81
2023-01-20T11:53:00.080Z,99732.48
2023-01-20T11:56:07.049Z,99740.88
2023-01-20T11:59:11.091Z,99745.27
2023-01-20T12:02:18.105Z,99745.86
2023-01-20T12:05:34.033Z,99737.59
2023-01-20T12:08:58.117Z,99740.84
2023-01-20T12:12:13.134Z,99739.60
2023-01-20T12:15:25.167Z,99745.15
2023-01-20T12:18:25.093Z,99746.67
2023-01-20T12:21:25.083Z,99750.83
2023-01-20T12:24:38.746Z,99753.53
2023-01-20T12:27:42.142Z,99753.05
2023-01-20T12:30:56.136Z,99746.27
2023-01-20T12:33:57.186Z,99749.70
2023-01-20T12:37:13.215Z,99755.17
2023-01-20T12:40:51.114Z,99753.48
2023-01-20T12:44:16.121Z,99756.49
2023-01-20T12:47:27.142Z,99764.83
2023-01-20T12:50:36.137Z,99770.05
2023-01-20T12:53:55.175Z,99766.20
2023-01-20T12:57:07.206Z,99764.12
2023-01-20T13:00:24.224Z,99768.33
2023-01-20T13:03:49.201Z,99771.37
2023-01-20T13:07:08.274Z,99775.45
2023-01-20T14:43:15.655Z,99782.76
2023-01-20T14:46:16.742Z,99794.27
2023-01-20T14:49:18.944Z,99801.90
2023-01-20T14:52:20.705Z,99799.14
2023-01-20T14:55:53.668Z,99799.67
2023-01-20T14:58:57.715Z,99798.95
2023-01-20T15:01:58.690Z,99803.22
2023-01-20T15:04:59.668Z,99812.23
2023-01-20T15:07:54.696Z,99814.27
2023-01-20T15:10:34.757Z,99814.64
2023-01-20T15:13:32.725Z,99810.88
2023-01-20T15:16:19.807Z,99807.05
2023-01-20T15:19:22.738Z,99809.06
2023-01-20T15:22:29.821Z,99808.44
2023-01-20T15:25:33.728Z,99807.20
2023-01-20T15:28:40.700Z,99800.46
2023-01-20T15:31:41.767Z,99802.81
2023-01-20T15:34:42.706Z,99804.65
2023-01-20T15:37:47.178Z,99801.51
2023-01-20T15:40:47.714Z,99801.41
2023-01-20T15:43:48.727Z,99805.63
2023-01-20T15:46:49.860Z,99806.44
2023-01-20T15:49:43.802Z,99816.02
2023-01-20T15:52:30.729Z,99818.66
2023-01-20T15:55:32.778Z,99815.80
2023-01-20T15:58:43.740Z,99815.69
2023-01-20T16:01:44.825Z,99826.71
2023-01-20T16:04:45.799Z,99825.56
2023-01-20T16:07:40.486Z,99824.21
2023-01-20T16:10:29.792Z,99822.19
2023-01-20T16:13:30.861Z,99829.42
2023-01-20T16:16:36.847Z,99831.02
2023-01-20T16:19:37.795Z,99835.83
2023-01-20T16:22:39.811Z,99826.15
2023-01-20T16:25:40.846Z,99829.27
2023-01-20T16:28:41.848Z,99831.44
2023-01-20T16:31:43.907Z,99835.16
2023-01-20T16:34:47.137Z,99833.04
2023-01-20T16:37:47.802Z,99836.10
2023-01-20T16:40:48.888Z,99841.66
2023-01-20T16:43:51.616Z,99845.44
2023-01-20T16:46:52.943Z,99845.95
2023-01-20T16:49:53.858Z,99845.98
2023-01-20T16:52:54.904Z,99849.24
2023-01-20T16:56:02.636Z,99840.89
2023-01-20T16:59:05.983Z,99841.20
2023-01-20T17:02:13.342Z,99847.12
2023-01-20T17:05:15.892Z,99847.92
2023-01-20T17:08:16.920Z,99858.97
2023-01-20T17:11:17.911Z,99857.33
2023-01-20T17:14:23.711Z,99857.87
2023-01-20T17:17:25.265Z,99865.94
2023-01-20T17:20:25.913Z,99865.45
2023-01-20T17:23:27.068Z,99863.59
2023-01-20T17:26:27.928Z,99865.30
2023-01-20T17:29:28.883Z,99865.82
2023-01-20T17:32:29.944Z,99866.84
2023-01-20T17:35:30.936Z,99865.66
2023-01-20T17:38:31.948Z,99870.64
2023-01-20T17:41:33.954Z,99863.27
2023-01-20T17:44:34.939Z,99865.63
2023-01-20T17:47:35.960Z,99866.80
2023-01-20T17:50:37.969Z,99872.05
2023-01-20T17:53:40.118Z,99876.26
2023-01-20T17:56:40.971Z,99875.17
2023-01-20T17:59:45.066Z,99878.84
2023-01-20T18:02:46.003Z,99878.11
2023-01-20T18:05:47.006Z,99873.13
2023-01-20T18:08:48.976Z,99873.46
2023-01-20T18:11:50.996Z,99875.63
2023-01-20T18:14:53.985Z,99881.51
2023-01-20T18:17:55.101Z,99874.21
2023-01-20T18:20:56.072Z,99880.98
2023-01-20T18:23:57.071Z,99891.82
2023-01-20T18:26:52.130Z,99895.84
2023-01-20T18:29:42.113Z,99896.39
2023-01-20T18:32:43.066Z,99898.94
2023-01-20T18:35:44.774Z,99901.67
2023-01-20T18:38:50.286Z,99908.58
2023-01-20T18:41:51.041Z,99919.85
2023-01-20T18:44:52.057Z,99910.84
2023-01-20T18:47:53.072Z,99915.88
2023-01-20T18:50:54.111Z,99906.42
2023-01-20T18:53:55.098Z,99908.84
2023-01-20T18:56:56.144Z,99910.75
2023-01-20T18:59:59.131Z,99915.44
2023-01-20T19:03:05.070Z,99917.77
2023-01-20T19:06:07.100Z,99922.05
2023-01-20T19:09:09.075Z,99923.84
2023-01-20T19:12:10.094Z,99921.87
2023-01-20T19:15:11.120Z,99919.69
2023-01-20T19:18:14.483Z,99920.46
2023-01-20T19:21:20.106Z,99929.17
2023-01-20T19:24:21.118Z,99941.50
2023-01-20T19:27:22.109Z,99936.45
2023-01-20T19:30:23.092Z,99937.20
2023-01-20T19:33:25.142Z,99934.96
2023-01-20T19:36:27.127Z,99939.69
2023-01-20T19:39:30.332Z,99942.02
2023-01-20T19:42:31.227Z,99939.45
2023-01-20T19:45:44.913Z,99955.39
2023-01-20T19:48:46.275Z,99959.27
2023-01-20T19:51:49.161Z,99957.26
2023-01-20T19:54:51.811Z,99954.45
2023-01-20T19:57:53.182Z,99952.11
2023-01-20T20:00:54.201Z,99962.18
2023-01-20T20:03:55.211Z,99972.83
2023-01-20T20:06:57.212Z,99976.76
2023-01-20T20:09:58.189Z,99979.97
2023-01-20T20:12:54.497Z,99981.29
2023-01-20T20:15:56.726Z,99976.22
2023-01-20T20:18:57.534Z,99983.67
2023-01-20T20:22:01.283Z,99992.10
2023-01-20T20:25:04.205Z,99995.77
2023-01-20T20:28:09.103Z,99996.92
2023-01-20T20:31:10.341Z,99988.09
2023-01-20T20:34:12.322Z,99993.25
2023-01-20T20:37:18.322Z,100011.85
2023-01-20T20:40:22.241Z,100015.04
2023-01-20T20:43:32.616Z,100009.00
2023-01-20T20:46:33.530Z,100014.48
2023-01-20T20:49:35.275Z,100017.52
2023-01-20T20:52:36.415Z,100016.66
2023-01-20T20:55:37.306Z,100018.02
2023-01-20T20:58:45.643Z,100019.70
2023-01-20T21:01:57.467Z,100023.23
2023-01-20T21:04:58.880Z,100024.76
2023-01-20T21:08:01.291Z,100028.77
2023-01-20T21:11:02.389Z,100023.65
2023-01-20T21:14:03.360Z,100039.23
2023-01-20T21:17:05.413Z,100041.09
2023-01-20T21:20:06.311Z,100042.67
2023-01-20T21:23:07.311Z,100038.39
2023-01-20T21:26:19.421Z,100040.29
2023-01-20T21:29:22.307Z,100044.09
2023-01-20T21:32:24.698Z,100046.20
2023-01-20T21:35:25.354Z,100041.20
2023-01-20T21:38:26.319Z,100037.36
2023-01-20T21:41:27.414Z,100042.79
2023-01-20T21:44:38.746Z,100049.53
2023-01-20T21:47:39.349Z,100047.79
2023-01-20T21:50:58.354Z,100042.48
2023-01-20T21:53:59.354Z,100041.38
2023-01-20T21:57:00.372Z,100048.23
2023-01-20T22:00:01.371Z,100049.21
